• Join FlightAware (Why Join?)
  • Login
  • US Flag 
05:25AM EDT


 

Airport Tracker/Info


-or-


 

Live Flight TrackerFlight Track Log ✈ ACA7034 ✈ 09-Oct-2013 ✈ KPIT - KIAD

Flight Track Log - Related Links

Times and Time Zones

All times are in EDT time to prevent confusion due to time zone crossing. See the ACA7034 flight status page for this flight to view local times or setup timezone preferences in your user account.

Time Position Orientation Groundspeed Altitude Reporting Facility
EDT Latitude Longitude Course Direction KTS MPH feet Rate Location/Type
11:42AM 40.3847 -80.1700 99° East 236 272 5,900  Level Cleveland Center
11:43AM 40.3094 -80.1492 168° South 289 333 9,900 2,820 Climbing Cleveland Center
11:44AM 40.2275 -80.1167 163° South 320 368 11,700 2,340 Climbing Cleveland Center
11:45AM 40.1056 -80.0686 163° South 389 448 14,700 2,700 Climbing Cleveland Center
11:46AM 40.1290 -79.5597 100° East  Level Estimated
11:46AM 40.0000 -80.0264 163° South 396 456 17,300  Level Cleveland Center
11:47AM 40.0682 -79.4482 99° East  Level Estimated
11:47AM 39.8894 -79.9856 164° South 409 471 19,300  Level Cleveland Center
11:48AM 39.7764 -79.9303 159° South 430 495 21,400 1,800 Climbing Cleveland Center
11:49AM 39.6719 -79.8436 147° Southeast 444 511 23,000 720 Climbing Cleveland Center
11:50AM 39.5872 -79.7300 134° Southeast 440 506 23,000  Level Cleveland Center
11:51AM 39.5203 -79.5867 121° Southeast 438 504 23,000  Level Washington Center
11:52AM 39.4836 -79.4367 108° East 423 487 23,000  Level Washington Center
11:53AM 39.4572 -79.2822 102° East 428 493 23,000 -480 Level Washington Center
11:54AM 39.4283 -79.1275 104° East 433 498 22,100 -1,020 Descending Washington Center
11:55AM 39.3972 -78.9836 106° East 428 493 21,100 -1,020 Descending Washington Center
11:56AM 39.3761 -78.8403 101° East 415 478 20,100 -1,440 Descending Washington Center
11:57AM 39.3486 -78.6969 104° East 410 472 18,200 -2,040 Descending Washington Center
11:58AM 39.3250 -78.5589 102° East 400 460 16,000 -2,040 Descending Washington Center
11:59AM 39.3044 -78.4561 104° East 387 445 14,200 -2,400 Descending Washington Center
12:00PM 39.2639 -78.3206 111° Southeast 350 403 11,200 -1,680 Descending Washington Center
12:01PM 39.2178 -78.2358 125° Southeast 317 365 11,000 -300 Descending Washington Center
12:02PM 39.1739 -78.1539 125° Southeast 294 338 10,700 -960 Descending Washington Center
12:03PM 39.1297 -78.0694 124° Southeast 281 323 9,100 -900 Descending Washington Center
12:04PM 39.0875 -77.9903 124° Southeast 281 323 9,000 -600 Descending Washington Center
12:05PM 39.0453 -77.9089 124° Southeast 276 318 7,900 -1,020 Descending Washington Center
12:06PM 39.0031 -77.8300 125° Southeast 264 304 7,000 -960 Descending Washington Center
12:07PM 38.9689 -77.7650 124° Southeast 259 298 6,000 -540 Descending Washington Center
12:08PM 38.9581 -77.6711 98° East 243 280 6,000  Level Washington Center
12:09PM 38.9000 -77.6000 136° Southeast 227 261 6,000 -120 Level Potomac TRACON
12:10PM 38.8500 -77.5667 153° Southeast 230 265 5,800 -780 Descending Potomac TRACON
12:11PM 38.7833 -77.5667 180° South 230 265 4,600 -1,200 Descending Potomac TRACON
12:12PM 38.7667 -77.5167 113° Southeast 197 227 3,400 -780 Descending Potomac TRACON
12:13PM 38.8000 -77.4667 49° Northeast 171 197 3,000 -540 Descending Potomac TRACON
12:14PM 38.8333 -77.4667 360° North 171 197 2,400 -780 Descending Potomac TRACON
12:15PM 38.8833 -77.4667 360° North 145 167 1,600 -780 Descending Potomac TRACON
12:16PM 38.9167 -77.4667 360° North 117 135 900 -720 Descending Potomac TRACON
12:18PM 38.9333 -77.4500 165° South  Level FlightAware Approximate
12:25PM 38.9474 -77.4599 165° South  Level Estimated
12:26PM 38.9474 -77.4599 165° South  Level Estimated